Chiselville, Vermont
Current Conditions -  °F | °C
As of 10:54 PM on Sunday 25 Jan 2015 (Local Time) from KDDH Reporting Station
Clear Clear  
Wind Chill: 10°   Ceiling: Unl
Heat Index: 10°   Visibility: 10mi
Dew Point: -1°   Wind: 3mph
Humidity: 61%   Direction: 220°SW
Pressure: 30"   Gusts: NA
Location:  43.0661°N, 73.1407°W
Report Text: KDDH 260354Z AUTO 22003KT 10SM CLR M12/M18 A3000 RMK AO2 SLP174 T11221183
Loading
Personal Weather Stations






























Interactive Weather Map New forecast layout! Learn more

10-Day Weather Forecast

Advertisements
Track Severe Weather on mobile